Terminal Aerodrome Forecast
Issued by NWS Tampa Bay Area, FL

Home | Current Version | Previous Version | Text Only | Print | Product List | Glossary On
Versions: 1 2 3 4 5 6 7 8 9 10 11 12 13 14 15
832
FTUS42 KTBW 240550
TAFSRQ
TAF
KSRQ 240550Z 2406/2506 20013KT P6SM BKN020 BKN250
     FM240700 21016G23KT P6SM -RA SCT015 BKN030 OVC060
     FM241500 22020G28KT 5SM -RA VCTS BKN020CB OVC050
     FM250000 23022G28KT 4SM -RA VCTS SCT015CB BKN025 OVC060=

USA.gov is the U.S. government's official web portal to all federal, state and local government web resources and services.